Time;durP1;ratioP1;P1;durP2;ratioP2;P2;SDS_P1;SDS_P2;PMS_P1;PMS_P2;Temp;Humidity;BMP_temperature;BMP_pressure;BME280_temperature;BME280_humidity;BME280_pressure;Samples;Min_cycle;Max_cycle;Signal;HPM_P1;HPM_P2
2023/06/08 00:01:44;;;;;;;17.02;7.25;;;12.80;99.90;;;;;;5069855;28;20033;-60
2023/06/08 00:04:10;;;;;;;13.95;6.07;;;12.90;99.90;;;;;;5055460;28;20398;-60
2023/06/08 00:06:37;;;;;;;15.88;7.30;;;12.80;99.90;;;;;;5066184;28;20130;-60
2023/06/08 00:09:05;;;;;;;15.13;7.53;;;12.80;99.90;;;;;;5067068;28;20059;-59
2023/06/08 00:11:32;;;;;;;19.83;9.15;;;12.70;99.90;;;;;;5059387;28;20044;-60
2023/06/08 00:13:59;;;;;;;16.58;8.02;;;12.70;99.90;;;;;;5059990;28;20036;-58
2023/06/08 00:16:25;;;;;;;16.90;7.43;;;12.80;99.90;;;;;;5061763;28;20067;-59
2023/06/08 00:18:56;;;;;;;22.65;9.68;;;12.80;99.90;;;;;;5061834;28;20487;-60
2023/06/08 00:21:23;;;;;;;17.67;8.55;;;12.80;99.90;;;;;;5057188;28;20576;-60
2023/06/08 00:23:50;;;;;;;17.27;8.85;;;12.80;99.90;;;;;;5062200;28;20115;-58
2023/06/08 00:26:16;;;;;;;17.48;8.82;;;12.80;99.90;;;;;;5052410;28;22176;-60
2023/06/08 00:28:45;;;;;;;17.67;9.43;;;12.80;99.90;;;;;;5061909;28;20071;-60
2023/06/08 00:31:10;;;;;;;18.65;9.20;;;12.70;99.90;;;;;;5060337;28;20495;-60
2023/06/08 00:33:36;;;;;;;16.30;9.38;;;12.70;99.90;;;;;;5061649;28;20036;-60
2023/06/08 00:36:04;;;;;;;19.98;9.50;;;12.70;99.90;;;;;;5044838;28;20447;-60
2023/06/08 00:38:31;;;;;;;18.75;9.27;;;12.60;99.90;;;;;;5046142;28;20041;-59
2023/06/08 00:40:56;;;;;;;18.67;9.60;;;12.60;99.90;;;;;;5052872;28;20036;-60
2023/06/08 00:43:22;;;;;;;16.55;9.10;;;12.60;99.90;;;;;;5054815;28;20067;-60
2023/06/08 00:45:48;;;;;;;22.48;9.50;;;12.60;99.90;;;;;;5056338;28;20216;-60
2023/06/08 00:48:17;;;;;;;17.92;9.20;;;12.60;99.90;;;;;;5036942;28;20134;-61
2023/06/08 00:50:46;;;;;;;17.45;8.93;;;12.60;99.90;;;;;;5062950;28;20058;-61
2023/06/08 00:53:13;;;;;;;17.35;9.00;;;12.60;99.90;;;;;;5062362;28;20050;-61
2023/06/08 00:55:43;;;;;;;23.50;10.18;;;12.60;99.90;;;;;;5042192;28;20048;-60
2023/06/08 00:58:13;;;;;;;18.90;9.13;;;12.60;99.90;;;;;;5046187;28;20048;-60
2023/06/08 01:00:44;;;;;;;20.15;9.00;;;12.60;99.90;;;;;;5061315;28;20037;-59
2023/06/08 01:03:10;;;;;;;17.92;9.07;;;12.60;99.90;;;;;;5065273;28;20048;-59
2023/06/08 01:05:38;;;;;;;15.70;8.48;;;12.60;99.90;;;;;;5045917;28;20036;-61
2023/06/08 01:08:42;;;;;;;14.45;7.97;;;12.60;99.90;;;;;;5053028;28;20052;-59
2023/06/08 01:11:32;;;;;;;15.77;7.63;;;12.70;99.90;;;;;;5040746;23;20049;-61
2023/06/08 01:14:19;;;;;;;17.88;7.80;;;12.70;99.90;;;;;;5010884;28;20037;-61
2023/06/08 01:16:50;;;;;;;18.00;8.88;;;12.70;99.90;;;;;;4990770;28;20041;-62
2023/06/08 01:19:39;;;;;;;25.67;9.07;;;12.70;99.90;;;;;;5004392;28;20124;-62
2023/06/08 01:22:30;;;;;;;19.08;7.68;;;12.60;99.90;;;;;;5007749;28;20056;-61
2023/06/08 01:24:59;;;;;;;18.10;7.22;;;12.60;99.90;;;;;;5015786;28;20129;-61
2023/06/08 01:27:31;;;;;;;13.55;7.72;;;12.50;99.90;;;;;;5003109;28;20172;-60
2023/06/08 01:29:57;;;;;;;14.55;7.18;;;12.50;99.90;;;;;;5012627;28;20041;-60
2023/06/08 01:32:23;;;;;;;18.88;7.65;;;12.50;99.90;;;;;;5010958;28;20053;-60
2023/06/08 01:34:49;;;;;;;16.42;7.10;;;12.50;99.90;;;;;;5024240;28;20053;-60
2023/06/08 01:37:26;;;;;;;18.10;8.38;;;12.50;99.90;;;;;;5017203;28;20037;-60
2023/06/08 01:39:55;;;;;;;17.65;7.28;;;12.50;99.90;;;;;;5002759;28;20041;-60
2023/06/08 01:42:23;;;;;;;16.77;8.27;;;12.60;99.90;;;;;;5020279;28;20040;-60
2023/06/08 01:44:57;;;;;;;16.63;7.55;;;12.50;99.90;;;;;;5005942;28;20061;-60
2023/06/08 01:47:28;;;;;;;13.82;7.40;;;12.60;99.90;;;;;;5015729;28;20087;-60
2023/06/08 01:49:55;;;;;;;18.92;7.70;;;12.50;99.90;;;;;;5017312;28;20088;-60
2023/06/08 01:52:20;;;;;;;18.17;7.82;;;12.60;99.90;;;;;;5016832;28;21125;-60
2023/06/08 01:54:46;;;;;;;15.68;7.65;;;12.60;99.90;;;;;;5017891;28;20055;-60
2023/06/08 01:57:12;;;;;;;17.27;7.78;;;12.60;99.90;;;;;;5021929;28;20041;-60
2023/06/08 01:59:37;;;;;;;15.50;8.15;;;12.60;99.90;;;;;;5014761;28;20045;-60
2023/06/08 02:02:03;;;;;;;16.42;8.50;;;12.60;99.90;;;;;;5014142;28;20054;-60
2023/06/08 02:04:30;;;;;;;16.13;7.60;;;12.60;99.90;;;;;;5015423;28;20120;-60
2023/06/08 02:06:56;;;;;;;18.42;7.85;;;12.50;99.90;;;;;;5024894;28;20389;-60
2023/06/08 02:09:21;;;;;;;15.13;8.48;;;12.60;99.90;;;;;;5009551;28;20038;-60
2023/06/08 02:11:47;;;;;;;14.02;8.82;;;12.60;99.90;;;;;;5022573;28;20068;-60
2023/06/08 02:14:14;;;;;;;19.27;9.05;;;12.60;99.90;;;;;;4998181;28;20183;-60
2023/06/08 02:16:40;;;;;;;19.52;8.73;;;12.60;99.90;;;;;;5021058;28;20080;-60
2023/06/08 02:19:05;;;;;;;16.42;7.65;;;12.60;99.90;;;;;;5022845;28;20504;-60
2023/06/08 02:21:32;;;;;;;16.95;8.20;;;12.60;99.90;;;;;;4993451;28;20116;-61
2023/06/08 02:23:58;;;;;;;16.65;9.00;;;12.60;99.90;;;;;;5027216;28;20080;-60
2023/06/08 02:26:23;;;;;;;14.45;8.18;;;12.60;99.90;;;;;;4996941;28;20615;-60
2023/06/08 02:28:49;;;;;;;17.25;8.20;;;12.60;99.90;;;;;;4992133;28;20597;-60
2023/06/08 02:31:15;;;;;;;12.82;8.57;;;12.60;99.90;;;;;;5033567;28;20088;-60
2023/06/08 02:33:41;;;;;;;17.63;8.40;;;12.60;99.90;;;;;;5009325;28;20435;-60
2023/06/08 02:36:09;;;;;;;19.63;8.45;;;12.60;99.90;;;;;;4993521;28;20064;-60
2023/06/08 02:38:35;;;;;;;16.05;9.07;;;12.50;99.90;;;;;;4993985;28;20041;-60
2023/06/08 02:41:00;;;;;;;18.92;8.38;;;12.50;99.90;;;;;;5017962;28;20044;-60
2023/06/08 02:43:26;;;;;;;14.98;7.43;;;12.50;99.90;;;;;;4987404;28;20053;-60
2023/06/08 02:45:52;;;;;;;20.48;10.10;;;12.50;99.90;;;;;;5027915;28;20041;-60
2023/06/08 02:48:17;;;;;;;18.48;9.98;;;12.50;99.90;;;;;;5007840;28;20047;-60
2023/06/08 02:50:46;;;;;;;16.85;8.82;;;12.50;99.90;;;;;;5005885;28;20049;-60
2023/06/08 02:53:11;;;;;;;19.75;10.43;;;12.50;99.90;;;;;;4994880;28;20041;-60
2023/06/08 02:55:37;;;;;;;21.17;10.02;;;12.50;99.90;;;;;;5012895;28;20805;-60
2023/06/08 02:58:03;;;;;;;17.55;9.48;;;12.50;99.90;;;;;;5000433;28;20058;-60
2023/06/08 03:00:32;;;;;;;19.77;10.85;;;12.50;99.90;;;;;;5022192;28;20092;-61
2023/06/08 03:03:00;;;;;;;21.83;10.02;;;12.50;99.90;;;;;;4997105;28;20033;-60
2023/06/08 03:05:26;;;;;;;19.50;9.95;;;12.50;99.90;;;;;;5022291;28;20506;-60
2023/06/08 03:07:53;;;;;;;17.95;8.77;;;12.50;99.90;;;;;;5013788;28;20045;-61
2023/06/08 03:10:19;;;;;;;18.23;9.25;;;12.50;99.90;;;;;;5015887;28;20068;-61
2023/06/08 03:12:45;;;;;;;16.42;8.43;;;12.50;99.90;;;;;;5022652;28;20411;-61
2023/06/08 03:15:11;;;;;;;19.25;9.75;;;12.50;99.90;;;;;;5013996;28;20045;-61
2023/06/08 03:17:37;;;;;;;19.10;8.75;;;12.60;99.90;;;;;;5025137;28;20041;-61
2023/06/08 03:20:08;;;;;;;21.40;8.38;;;12.60;99.90;;;;;;4996123;28;20074;-61
2023/06/08 03:22:34;;;;;;;16.85;8.05;;;12.60;99.90;;;;;;5020945;28;20069;-61
2023/06/08 03:25:03;;;;;;;15.07;7.75;;;12.60;99.90;;;;;;5005196;28;20048;-61
2023/06/08 03:27:29;;;;;;;21.15;8.45;;;12.60;99.90;;;;;;5037213;28;20037;-61
2023/06/08 03:29:55;;;;;;;20.52;9.35;;;12.60;99.90;;;;;;5005168;28;20080;-61
2023/06/08 03:32:20;;;;;;;15.90;7.63;;;12.60;99.90;;;;;;5025490;28;20063;-61
2023/06/08 03:34:48;;;;;;;16.55;7.00;;;12.60;99.90;;;;;;5022101;28;20041;-61
2023/06/08 03:37:14;;;;;;;18.95;7.32;;;12.60;99.90;;;;;;4998877;28;20410;-61
2023/06/08 03:39:46;;;;;;;18.70;7.50;;;12.60;99.90;;;;;;5014129;28;20037;-61
2023/06/08 03:42:11;;;;;;;12.98;6.97;;;12.60;99.90;;;;;;4998201;28;20052;-61
2023/06/08 03:44:37;;;;;;;17.88;7.40;;;12.60;99.90;;;;;;5026778;28;20033;-61
2023/06/08 03:47:03;;;;;;;16.50;7.10;;;12.60;99.90;;;;;;5022067;28;20063;-61
2023/06/08 03:49:29;;;;;;;13.02;6.20;;;12.60;99.90;;;;;;5009293;28;20037;-61
2023/06/08 03:51:55;;;;;;;17.75;7.93;;;12.60;99.90;;;;;;5026745;28;20072;-61
2023/06/08 03:54:21;;;;;;;15.23;6.60;;;12.60;99.90;;;;;;5032381;28;20522;-61
2023/06/08 03:56:47;;;;;;;13.52;6.82;;;12.60;99.90;;;;;;5014444;28;20069;-61
2023/06/08 03:59:12;;;;;;;19.70;6.88;;;12.60;99.90;;;;;;5011168;28;20041;-61
2023/06/08 04:01:41;;;;;;;13.82;7.03;;;12.60;99.90;;;;;;5015805;28;20348;-61
2023/06/08 04:04:07;;;;;;;17.42;6.80;;;12.60;99.90;;;;;;5021623;28;20053;-61
2023/06/08 04:06:33;;;;;;;19.00;7.05;;;12.60;99.90;;;;;;5032077;28;20485;-61
2023/06/08 04:09:00;;;;;;;18.42;6.82;;;12.60;99.90;;;;;;5007048;28;20044;-61
2023/06/08 04:11:26;;;;;;;17.73;6.80;;;12.60;99.90;;;;;;5017129;28;20045;-60
2023/06/08 04:13:52;;;;;;;15.07;7.28;;;12.60;99.90;;;;;;5001742;28;20045;-61
2023/06/08 04:16:17;;;;;;;16.58;6.18;;;12.60;99.90;;;;;;5011566;28;20045;-61
2023/06/08 04:18:43;;;;;;;15.32;6.18;;;12.60;99.90;;;;;;5024398;28;20124;-61
2023/06/08 04:21:09;;;;;;;19.60;7.35;;;12.70;99.90;;;;;;5006533;28;20335;-61
2023/06/08 04:23:36;;;;;;;16.73;7.10;;;12.70;99.90;;;;;;5009355;28;20553;-61
2023/06/08 04:26:12;;;;;;;18.77;7.70;;;12.70;99.90;;;;;;5014200;28;20077;-61
2023/06/08 04:28:37;;;;;;;14.43;6.32;;;12.70;99.90;;;;;;5009880;28;20049;-61
2023/06/08 04:31:04;;;;;;;19.33;7.15;;;12.80;99.90;;;;;;5005778;28;20057;-61
2023/06/08 04:33:33;;;;;;;17.67;6.32;;;12.80;99.90;;;;;;5005284;28;20622;-61
2023/06/08 04:36:01;;;;;;;14.50;6.20;;;12.80;99.90;;;;;;4989166;28;20116;-61
2023/06/08 04:38:27;;;;;;;17.80;6.43;;;12.80;99.90;;;;;;5009061;28;20041;-61
2023/06/08 04:40:53;;;;;;;18.48;6.22;;;12.80;99.90;;;;;;5026044;28;20041;-61
2023/06/08 04:43:25;;;;;;;16.73;6.25;;;12.90;99.90;;;;;;5008269;28;20056;-60
2023/06/08 04:45:57;;;;;;;13.98;6.20;;;12.90;99.90;;;;;;5027189;28;20325;-61
2023/06/08 04:48:25;;;;;;;21.27;6.03;;;12.90;99.90;;;;;;5022692;28;20048;-61
2023/06/08 04:50:52;;;;;;;16.98;5.93;;;12.90;99.90;;;;;;4995423;28;20038;-61
2023/06/08 04:53:18;;;;;;;15.35;6.30;;;12.90;99.90;;;;;;5002781;28;20392;-61
2023/06/08 04:55:45;;;;;;;14.02;6.70;;;12.90;99.90;;;;;;5007595;28;20036;-61
2023/06/08 04:58:12;;;;;;;18.10;7.60;;;13.00;99.90;;;;;;5009997;28;20131;-61
2023/06/08 05:00:38;;;;;;;16.63;6.50;;;13.00;99.90;;;;;;5017887;28;20057;-60
2023/06/08 05:03:04;;;;;;;16.00;5.82;;;13.10;99.90;;;;;;5027608;28;20373;-61
2023/06/08 05:05:30;;;;;;;19.27;6.78;;;13.10;99.90;;;;;;5028431;28;20331;-61
2023/06/08 05:07:55;;;;;;;15.60;6.60;;;13.20;99.90;;;;;;5032461;28;20104;-61
2023/06/08 05:10:21;;;;;;;16.02;7.88;;;13.20;99.90;;;;;;5018004;28;20131;-61
2023/06/08 05:12:47;;;;;;;19.98;7.88;;;13.20;99.90;;;;;;5013392;28;20037;-61
2023/06/08 05:15:13;;;;;;;19.27;7.80;;;13.20;99.90;;;;;;4974520;28;20060;-61
2023/06/08 05:17:38;;;;;;;19.05;7.20;;;13.20;99.90;;;;;;5019375;28;20034;-61
2023/06/08 05:20:05;;;;;;;18.60;5.85;;;13.20;99.90;;;;;;5003150;28;20088;-61
2023/06/08 05:22:31;;;;;;;17.15;5.85;;;13.20;99.90;;;;;;4998504;28;20119;-61
2023/06/08 05:24:56;;;;;;;14.75;5.78;;;13.30;99.90;;;;;;5020316;28;20109;-61
2023/06/08 05:27:22;;;;;;;17.70;5.63;;;13.30;99.90;;;;;;4997104;28;20049;-61
2023/06/08 05:29:48;;;;;;;14.10;5.28;;;13.30;99.90;;;;;;5015578;28;20041;-61
2023/06/08 05:32:14;;;;;;;16.73;6.00;;;13.30;99.90;;;;;;5020824;28;20487;-61
2023/06/08 05:34:40;;;;;;;20.92;7.85;;;13.30;99.90;;;;;;5020083;28;20045;-61
2023/06/08 05:37:06;;;;;;;13.18;5.15;;;13.40;99.90;;;;;;5013376;28;20123;-61
2023/06/08 05:39:31;;;;;;;15.75;6.65;;;13.50;99.90;;;;;;5012937;28;20705;-61
2023/06/08 05:42:00;;;;;;;15.02;7.30;;;13.50;99.90;;;;;;5025780;28;20033;-61
2023/06/08 05:44:25;;;;;;;16.00;6.00;;;13.40;99.90;;;;;;5016734;28;20083;-61
2023/06/08 05:46:51;;;;;;;20.65;6.93;;;13.40;99.90;;;;;;5024136;28;20101;-61
2023/06/08 05:49:17;;;;;;;17.55;6.35;;;13.50;99.90;;;;;;5031210;28;20540;-61
2023/06/08 05:51:45;;;;;;;20.35;6.75;;;13.50;99.90;;;;;;5015018;28;20049;-61
2023/06/08 05:54:13;;;;;;;15.90;6.53;;;13.50;99.90;;;;;;5023090;28;20490;-61
2023/06/08 05:56:39;;;;;;;14.70;6.68;;;13.50;99.90;;;;;;5020568;28;20112;-61
2023/06/08 05:59:05;;;;;;;14.77;5.47;;;13.50;99.90;;;;;;5017959;28;20488;-61
2023/06/08 06:01:31;;;;;;;18.42;6.15;;;13.60;99.90;;;;;;5022000;28;20045;-61
2023/06/08 06:03:56;;;;;;;16.27;6.03;;;13.60;99.90;;;;;;5009489;28;20472;-61
2023/06/08 06:06:22;;;;;;;19.27;6.78;;;13.70;99.90;;;;;;5014586;28;20127;-61
2023/06/08 06:08:48;;;;;;;15.93;6.90;;;13.70;99.90;;;;;;5020427;28;20520;-61
2023/06/08 06:11:14;;;;;;;17.10;6.38;;;13.70;99.90;;;;;;5036198;28;20041;-62
2023/06/08 06:13:40;;;;;;;17.60;6.28;;;13.70;99.90;;;;;;5025541;28;20045;-61
2023/06/08 06:16:05;;;;;;;13.15;5.97;;;13.80;99.90;;;;;;5023038;28;20045;-61
2023/06/08 06:18:31;;;;;;;17.65;5.97;;;13.90;99.90;;;;;;5021876;28;20037;-61
2023/06/08 06:20:57;;;;;;;14.63;6.13;;;14.00;99.90;;;;;;5003652;28;20529;-61
2023/06/08 06:23:23;;;;;;;12.80;6.25;;;14.10;99.90;;;;;;5028620;28;20117;-61
2023/06/08 06:25:50;;;;;;;20.77;6.85;;;14.10;99.90;;;;;;5010575;28;20587;-61
2023/06/08 06:28:15;;;;;;;15.32;6.90;;;14.10;99.90;;;;;;5018897;28;20041;-61
2023/06/08 06:30:41;;;;;;;13.18;6.20;;;14.20;99.90;;;;;;5004016;28;20091;-61
2023/06/08 06:33:12;;;;;;;13.23;5.55;;;14.20;99.90;;;;;;5017477;28;20262;-61
2023/06/08 06:35:38;;;;;;;16.75;6.15;;;14.40;99.90;;;;;;4992334;28;20045;-61
2023/06/08 06:38:03;;;;;;;13.98;5.13;;;14.50;99.90;;;;;;5014540;28;20151;-61
2023/06/08 06:40:29;;;;;;;17.25;5.90;;;14.70;99.90;;;;;;5022815;28;20083;-61
2023/06/08 06:42:55;;;;;;;17.50;5.65;;;14.90;99.90;;;;;;5018098;28;20033;-61
2023/06/08 06:45:20;;;;;;;18.90;6.35;;;15.10;99.90;;;;;;5018848;28;20041;-61
2023/06/08 06:47:46;;;;;;;13.20;5.90;;;15.20;99.90;;;;;;5022271;28;20373;-61
2023/06/08 06:50:12;;;;;;;17.85;5.95;;;15.10;99.90;;;;;;5012848;28;20060;-61
2023/06/08 06:52:38;;;;;;;14.90;6.70;;;15.00;99.90;;;;;;5029321;28;20479;-61
2023/06/08 06:55:04;;;;;;;16.23;6.13;;;14.90;99.90;;;;;;5015186;28;20050;-61
2023/06/08 06:57:32;;;;;;;17.60;5.88;;;14.90;99.90;;;;;;5021295;28;20077;-61
2023/06/08 07:00:07;;;;;;;14.05;5.20;;;15.00;99.90;;;;;;4993425;28;20124;-61
2023/06/08 07:02:33;;;;;;;16.25;6.10;;;15.10;99.90;;;;;;5021934;28;20037;-61
2023/06/08 07:05:02;;;;;;;16.23;6.55;;;15.10;99.90;;;;;;5019923;28;20594;-61
2023/06/08 07:07:30;;;;;;;14.23;6.15;;;15.10;99.90;;;;;;4991176;28;20081;-61
2023/06/08 07:09:56;;;;;;;15.48;6.20;;;15.20;99.90;;;;;;5021943;28;20057;-61
2023/06/08 07:12:22;;;;;;;18.77;6.45;;;15.30;99.90;;;;;;5014268;28;20053;-61
2023/06/08 07:14:47;;;;;;;17.27;6.07;;;15.50;99.90;;;;;;5015367;28;20390;-61
2023/06/08 07:17:14;;;;;;;14.05;4.72;;;15.50;99.90;;;;;;5019020;28;20484;-61
2023/06/08 07:19:41;;;;;;;12.95;5.47;;;15.60;99.90;;;;;;5004094;28;20072;-61
2023/06/08 07:22:07;;;;;;;13.30;5.38;;;15.60;99.90;;;;;;5004230;28;20045;-62
2023/06/08 07:24:33;;;;;;;13.98;5.75;;;15.70;99.90;;;;;;5006116;28;20048;-62
2023/06/08 07:27:20;;;;;;;12.57;5.18;;;15.80;99.90;;;;;;5025468;28;20045;-62
2023/06/08 07:29:47;;;;;;;15.95;6.15;;;15.80;99.90;;;;;;4991763;28;20408;-63
2023/06/08 07:32:13;;;;;;;17.13;5.90;;;15.90;99.90;;;;;;5011694;28;20127;-63
2023/06/08 07:34:40;;;;;;;16.33;4.85;;;16.00;99.90;;;;;;5010412;28;20041;-62
2023/06/08 07:37:06;;;;;;;13.82;5.68;;;16.00;99.90;;;;;;5023458;28;20108;-63
2023/06/08 07:39:31;;;;;;;11.05;4.55;;;16.10;99.90;;;;;;5018942;28;20049;-63
2023/06/08 07:41:57;;;;;;;13.50;5.32;;;16.20;99.90;;;;;;5002007;28;20045;-63
2023/06/08 07:44:23;;;;;;;13.50;5.40;;;16.30;99.90;;;;;;5002902;28;20116;-60
2023/06/08 07:46:48;;;;;;;13.93;4.82;;;16.50;99.90;;;;;;5025310;28;20396;-63
2023/06/08 07:49:14;;;;;;;12.15;4.40;;;16.50;99.90;;;;;;5037037;28;20042;-62
2023/06/08 07:51:40;;;;;;;13.10;4.80;;;16.50;99.90;;;;;;5002009;28;20125;-63
2023/06/08 07:54:06;;;;;;;14.75;5.07;;;16.40;99.90;;;;;;5011047;28;20057;-62
2023/06/08 07:56:31;;;;;;;10.95;4.50;;;16.50;99.90;;;;;;5026515;28;20510;-63
2023/06/08 07:58:58;;;;;;;13.40;4.93;;;16.60;99.90;;;;;;5004960;28;20052;-62
2023/06/08 08:01:27;;;;;;;14.45;4.50;;;16.70;99.90;;;;;;5014440;28;21189;-63
2023/06/08 08:03:53;;;;;;;15.23;5.15;;;16.80;99.90;;;;;;5021828;28;20037;-62
2023/06/08 08:06:19;;;;;;;16.02;4.93;;;16.90;99.90;;;;;;5008916;28;20045;-62
2023/06/08 08:08:44;;;;;;;14.38;5.50;;;17.00;99.90;;;;;;5011150;28;20041;-63
2023/06/08 08:11:10;;;;;;;10.27;4.63;;;17.10;99.90;;;;;;5018816;28;20061;-63
2023/06/08 08:13:36;;;;;;;13.07;6.28;;;17.30;99.90;;;;;;5005793;28;20552;-63
2023/06/08 08:16:02;;;;;;;10.85;4.95;;;17.30;99.90;;;;;;4985965;28;20556;-63
2023/06/08 08:18:28;;;;;;;12.65;4.63;;;17.40;99.90;;;;;;5021097;28;20507;-62
2023/06/08 08:20:53;;;;;;;14.57;5.07;;;17.50;99.90;;;;;;5011799;28;20041;-63
2023/06/08 08:23:19;;;;;;;13.05;4.53;;;17.60;99.90;;;;;;5000178;28;20049;-61
2023/06/08 08:25:45;;;;;;;12.38;4.45;;;17.70;99.90;;;;;;5009921;28;20767;-62
2023/06/08 08:28:13;;;;;;;12.80;4.60;;;17.70;99.90;;;;;;5004751;28;20063;-62
2023/06/08 08:30:38;;;;;;;15.00;5.05;;;17.80;99.90;;;;;;5018410;28;20045;-61
2023/06/08 08:33:04;;;;;;;14.93;4.95;;;17.90;99.90;;;;;;5016304;28;20146;-62
2023/06/08 08:35:34;;;;;;;10.52;4.22;;;17.90;99.90;;;;;;5009414;28;20034;-61
2023/06/08 08:38:00;;;;;;;8.27;4.05;;;17.90;99.90;;;;;;5008221;28;20041;-61
2023/06/08 08:40:26;;;;;;;12.85;4.40;;;18.00;99.90;;;;;;5006310;28;20061;-62
2023/06/08 08:43:09;;;;;;;14.40;4.93;;;18.00;99.90;;;;;;5015826;28;20095;-61
2023/06/08 08:45:40;;;;;;;10.95;3.95;;;18.10;99.90;;;;;;5024693;28;20115;-60
2023/06/08 08:48:07;;;;;;;14.88;4.97;;;18.20;99.90;;;;;;5010194;28;20456;-61
2023/06/08 08:50:38;;;;;;;16.40;4.97;;;18.20;99.90;;;;;;5020075;28;20053;-60
2023/06/08 08:53:06;;;;;;;12.10;5.05;;;18.10;99.90;;;;;;5024636;28;20141;-61
2023/06/08 08:55:33;;;;;;;9.70;4.22;;;18.20;99.90;;;;;;5024385;28;20073;-60
2023/06/08 08:58:03;;;;;;;11.25;4.55;;;18.40;99.90;;;;;;5009557;28;20543;-61
2023/06/08 09:00:33;;;;;;;13.82;4.85;;;18.50;99.90;;;;;;5024945;28;20037;-60
2023/06/08 09:03:00;;;;;;;11.93;5.63;;;18.70;99.90;;;;;;5014430;28;20044;-61
2023/06/08 09:05:26;;;;;;;12.25;4.53;;;18.80;99.90;;;;;;5027452;28;20049;-59
2023/06/08 09:07:55;;;;;;;15.27;4.80;;;18.90;99.90;;;;;;5009847;28;20045;-61
2023/06/08 09:10:26;;;;;;;12.85;5.28;;;18.90;99.90;;;;;;5012947;28;20547;-60
2023/06/08 09:12:54;;;;;;;12.43;4.80;;;18.90;99.90;;;;;;5005828;28;20504;-60
2023/06/08 09:15:28;;;;;;;14.18;5.03;;;18.80;99.90;;;;;;5010777;28;20045;-60
2023/06/08 09:18:14;;;;;;;15.02;5.80;;;18.90;99.90;;;;;;5008795;28;20045;-61
2023/06/08 09:20:40;;;;;;;13.40;4.47;;;18.90;99.90;;;;;;5020593;28;20128;-61
2023/06/08 09:23:26;;;;;;;10.95;4.22;;;19.00;99.90;;;;;;5018980;28;20121;-61
2023/06/08 09:25:53;;;;;;;14.00;5.00;;;19.10;99.90;;;;;;5036835;28;20041;-60
2023/06/08 09:28:26;;;;;;;9.85;4.38;;;19.10;99.90;;;;;;5009714;28;20073;-59
2023/06/08 09:30:55;;;;;;;8.43;3.42;;;19.10;99.90;;;;;;5029899;28;20037;-61
2023/06/08 09:33:25;;;;;;;9.95;4.13;;;19.10;99.90;;;;;;5025195;28;21092;-59
2023/06/08 09:35:57;;;;;;;9.20;3.88;;;19.30;99.90;;;;;;5023657;28;20049;-60
2023/06/08 09:38:27;;;;;;;10.43;3.58;;;19.40;99.90;;;;;;5025955;28;20108;-61
2023/06/08 09:41:15;;;;;;;13.25;4.18;;;19.50;99.90;;;;;;5023738;28;20065;-61
2023/06/08 09:43:45;;;;;;;9.13;4.28;;;19.60;99.90;;;;;;5025269;28;20033;-61
2023/06/08 09:46:15;;;;;;;13.02;4.03;;;19.80;99.90;;;;;;5004917;28;20056;-59
2023/06/08 09:48:53;;;;;;;12.48;4.50;;;19.80;99.90;;;;;;5011248;28;20041;-61
2023/06/08 09:51:22;;;;;;;12.60;4.18;;;19.90;99.90;;;;;;5030270;28;20119;-61
2023/06/08 09:54:00;;;;;;;10.15;3.70;;;19.80;99.90;;;;;;5011806;28;20094;-61
2023/06/08 09:56:27;;;;;;;7.38;3.70;;;19.90;99.90;;;;;;5014390;28;20041;-61
2023/06/08 09:58:56;;;;;;;11.18;3.97;;;19.80;99.90;;;;;;5028704;28;20079;-60
2023/06/08 10:01:38;;;;;;;7.63;4.00;;;19.80;99.90;;;;;;5002528;28;20385;-60
2023/06/08 10:04:19;;;;;;;11.20;4.75;;;19.90;99.90;;;;;;5023146;28;20069;-60
2023/06/08 10:06:50;;;;;;;9.40;4.38;;;19.90;99.90;;;;;;5008782;28;20124;-61
2023/06/08 10:09:20;;;;;;;9.25;4.35;;;20.00;99.90;;;;;;5010947;28;20045;-60
2023/06/08 10:11:47;;;;;;;9.93;4.50;;;20.00;99.90;;;;;;5010176;28;20049;-61
2023/06/08 10:14:13;;;;;;;12.88;5.00;;;20.10;99.90;;;;;;4995019;28;20056;-61
2023/06/08 10:16:41;;;;;;;22.75;5.57;;;20.10;99.70;;;;;;5026883;28;20414;-62
2023/06/08 10:19:06;;;;;;;13.73;4.80;;;20.00;99.90;;;;;;5026966;28;20135;-62
2023/06/08 10:21:33;;;;;;;13.45;4.60;;;19.70;99.90;;;;;;5026174;28;20625;-62
2023/06/08 10:24:00;;;;;;;9.68;3.50;;;19.80;99.90;;;;;;5012459;28;20025;-62
2023/06/08 10:26:27;;;;;;;10.38;4.00;;;20.00;99.90;;;;;;5017617;28;20128;-62
2023/06/08 10:29:05;;;;;;;5.13;3.35;;;20.00;99.90;;;;;;5009136;28;20080;-61
2023/06/08 10:31:33;;;;;;;8.45;3.65;;;20.20;99.90;;;;;;4993928;28;20137;-62
2023/06/08 10:34:05;;;;;;;8.32;3.95;;;20.30;99.90;;;;;;5000438;28;20071;-63
2023/06/08 10:36:36;;;;;;;12.73;4.22;;;20.40;99.90;;;;;;5025863;28;20485;-61
2023/06/08 10:39:10;;;;;;;10.27;4.32;;;20.30;99.70;;;;;;5023248;28;20097;-62
2023/06/08 10:41:53;;;;;;;10.73;4.20;;;20.20;99.30;;;;;;4991164;28;20151;-61
2023/06/08 10:44:32;;;;;;;8.32;4.10;;;20.20;99.90;;;;;;5007073;28;20488;-61
2023/06/08 10:47:05;;;;;;;11.98;4.70;;;20.20;99.70;;;;;;5005987;28;20715;-60
2023/06/08 10:49:32;;;;;;;;;;;20.20;99.80;;;;;;5023538;28;20151;-61
2023/06/08 10:52:00;;;;;;;9.75;4.75;;;20.00;98.30;;;;;;5032987;28;19923;-61
2023/06/08 10:54:26;;;;;;;10.23;4.90;;;20.10;99.60;;;;;;5022824;28;20037;-62
2023/06/08 10:56:55;;;;;;;11.93;5.78;;;20.20;99.20;;;;;;5017425;28;20042;-62
2023/06/08 10:59:37;;;;;;;12.32;4.50;;;20.40;99.70;;;;;;5018081;28;20492;-61
2023/06/08 11:02:07;;;;;;;12.20;5.55;;;20.50;99.30;;;;;;5002967;28;20092;-62
2023/06/08 11:04:33;;;;;;;14.43;5.75;;;20.60;99.60;;;;;;5009061;28;20075;-61
2023/06/08 11:07:04;;;;;;;11.50;5.03;;;20.70;99.00;;;;;;4992348;28;20607;-62
2023/06/08 11:09:31;;;;;;;10.43;4.95;;;20.60;98.20;;;;;;5001168;28;20034;-62
2023/06/08 11:11:58;;;;;;;10.60;4.47;;;20.50;98.70;;;;;;5015627;28;20057;-62
2023/06/08 11:14:24;;;;;;;9.07;4.32;;;20.50;99.00;;;;;;5003878;28;20045;-63
2023/06/08 11:16:51;;;;;;;9.98;4.18;;;20.70;98.90;;;;;;4994370;28;20044;-61
2023/06/08 11:19:18;;;;;;;11.48;4.63;;;20.90;98.90;;;;;;5007848;28;20099;-63
2023/06/08 11:21:53;;;;;;;9.00;4.65;;;20.90;98.70;;;;;;5010097;28;20369;-61
2023/06/08 11:24:25;;;;;;;12.63;5.07;;;21.00;98.50;;;;;;5004564;28;20519;-61
2023/06/08 11:26:59;;;;;;;11.02;4.40;;;21.00;98.60;;;;;;4984324;28;20045;-62
2023/06/08 11:29:26;;;;;;;11.85;4.68;;;21.10;98.80;;;;;;5023546;28;20048;-62
2023/06/08 11:31:53;;;;;;;9.70;4.22;;;21.30;98.30;;;;;;5015559;28;20041;-61
2023/06/08 11:34:20;;;;;;;11.90;4.75;;;21.30;97.90;;;;;;5020969;28;20047;-61
2023/06/08 11:36:46;;;;;;;12.38;4.72;;;21.30;97.80;;;;;;4992377;28;20835;-62
2023/06/08 11:39:11;;;;;;;11.50;4.57;;;21.30;98.10;;;;;;4994516;28;20132;-61
2023/06/08 11:41:41;;;;;;;11.40;4.38;;;21.30;97.60;;;;;;5000254;28;20132;-60
2023/06/08 11:44:07;;;;;;;14.20;4.40;;;21.30;97.50;;;;;;4996032;28;20568;-61
2023/06/08 11:46:33;;;;;;;10.88;4.80;;;21.30;97.60;;;;;;5021633;28;20041;-62
2023/06/08 11:49:09;;;;;;;11.60;4.15;;;21.30;98.00;;;;;;5005149;28;20080;-61
2023/06/08 11:51:47;;;;;;;14.90;5.45;;;21.40;97.90;;;;;;5003264;28;20072;-60
2023/06/08 11:54:17;;;;;;;10.32;5.88;;;21.50;97.60;;;;;;5023857;28;20037;-62
2023/06/08 11:56:46;;;;;;;11.23;5.47;;;21.40;97.10;;;;;;5026569;28;20117;-62
2023/06/08 11:59:13;;;;;;;13.95;5.25;;;20.90;97.40;;;;;;4999454;28;20152;-62
2023/06/08 12:01:59;;;;;;;10.93;4.53;;;20.80;97.90;;;;;;5014005;28;20665;-63
2023/06/08 12:04:42;;;;;;;13.95;4.65;;;20.90;98.40;;;;;;5005220;28;20080;-62
2023/06/08 12:07:12;;;;;;;;;;;21.10;98.50;;;;;;5004529;28;20049;-62
2023/06/08 12:09:46;;;;;;;10.00;3.92;;;21.20;97.50;;;;;;5002303;28;20572;-61
2023/06/08 12:12:12;;;;;;;9.07;3.75;;;21.10;98.00;;;;;;5014893;28;20113;-62
2023/06/08 12:14:47;;;;;;;8.18;3.60;;;21.20;98.00;;;;;;5016963;28;20041;-62
2023/06/08 12:17:17;;;;;;;7.07;3.58;;;21.50;98.20;;;;;;4988803;28;20046;-62
2023/06/08 12:19:47;;;;;;;8.48;3.22;;;21.40;97.60;;;;;;5002448;28;20514;-62
2023/06/08 12:22:15;;;;;;;7.95;3.33;;;21.50;97.30;;;;;;5015496;28;20046;-62
2023/06/08 12:24:41;;;;;;;8.25;3.40;;;21.60;97.90;;;;;;4989597;28;20279;-62
2023/06/08 12:27:07;;;;;;;12.77;4.30;;;21.90;97.70;;;;;;5000513;28;20045;-62
2023/06/08 12:29:37;;;;;;;9.38;3.60;;;21.80;97.60;;;;;;5001518;28;20405;-63
2023/06/08 12:32:04;;;;;;;9.32;3.60;;;21.50;97.20;;;;;;5018158;28;20049;-61
2023/06/08 12:34:33;;;;;;;12.15;3.50;;;21.50;97.30;;;;;;4988396;28;20073;-62
2023/06/08 12:36:59;;;;;;;7.30;3.72;;;21.50;97.30;;;;;;5020755;28;20041;-61
2023/06/08 12:39:25;;;;;;;8.05;3.90;;;21.20;97.10;;;;;;5017367;28;20108;-62
2023/06/08 12:41:51;;;;;;;8.60;3.55;;;21.20;97.20;;;;;;5017729;28;20033;-62
2023/06/08 12:44:20;;;;;;;9.52;3.55;;;21.30;97.30;;;;;;5009071;28;20037;-62